Welcome to the New NWS' Forecast!
Most changes are behind the scenes, but click here for differences you might notice.

Terminal Aerodrome Forecast (TAF)

Issued by National Weather Service (NWS)

                            
908 
FTUS42 KKEY 171446 AAA
TAFEYW
TAF AMD
KEYW 171446Z 1715/1812 11011KT P6SM SCT025
     FM180300 09006KT P6SM VCSH SCT025 SCT040=